sensor_id;sensor_type;location;lat;lon;timestamp;pressure;altitude;pressure_sealevel;temperature;humidity
10688;BME280;5392;42.688;23.298;2023-04-10T00:01:12;57471.88;;;-144.48;100.00
10688;BME280;5392;42.688;23.298;2023-04-10T00:03:39;57455.16;;;-144.48;100.00
10688;BME280;5392;42.688;23.298;2023-04-10T00:06:06;57480.22;;;-144.48;100.00
10688;BME280;5392;42.688;23.298;2023-04-10T00:08:33;57413.44;;;-144.48;100.00
10688;BME280;5392;42.688;23.298;2023-04-10T00:11:00;57465.59;;;-144.48;100.00
10688;BME280;5392;42.688;23.298;2023-04-10T00:13:27;57465.59;;;-144.48;100.00
10688;BME280;5392;42.688;23.298;2023-04-10T00:15:53;57442.66;;;-144.48;100.00
10688;BME280;5392;42.688;23.298;2023-04-10T00:18:20;57515.69;;;-144.48;100.00
10688;BME280;5392;42.688;23.298;2023-04-10T00:20:46;57482.31;;;-144.48;100.00
10688;BME280;5392;42.688;23.298;2023-04-10T00:23:13;57461.44;;;-144.48;100.00
10688;BME280;5392;42.688;23.298;2023-04-10T00:25:40;57461.44;;;-144.48;100.00
10688;BME280;5392;42.688;23.298;2023-04-10T00:28:06;57461.44;;;-144.48;100.00
10688;BME280;5392;42.688;23.298;2023-04-10T00:30:33;57455.16;;;-144.48;100.00
10688;BME280;5392;42.688;23.298;2023-04-10T00:33:00;57430.13;;;-144.48;100.00
10688;BME280;5392;42.688;23.298;2023-04-10T00:35:26;57430.13;;;-144.48;100.00
10688;BME280;5392;42.688;23.298;2023-04-10T00:37:53;57482.31;;;-144.48;96.27
10688;BME280;5392;42.688;23.298;2023-04-10T00:40:21;57469.78;;;-144.48;93.10
10688;BME280;5392;42.688;23.298;2023-04-10T00:42:48;57465.59;;;-144.48;89.67
10688;BME280;5392;42.688;23.298;2023-04-10T00:45:14;57511.53;;;-144.48;87.66
10688;BME280;5392;42.688;23.298;2023-04-10T00:47:41;57484.41;;;-144.48;85.29
10688;BME280;5392;42.688;23.298;2023-04-10T00:50:08;57446.81;;;-144.48;85.36
10688;BME280;5392;42.688;23.298;2023-04-10T00:52:35;57455.16;;;-144.48;86.07
10688;BME280;5392;42.688;23.298;2023-04-10T00:55:02;57476.03;;;-144.48;89.24
10688;BME280;5392;42.688;23.298;2023-04-10T00:57:29;57453.09;;;-144.48;87.32
10688;BME280;5392;42.688;23.298;2023-04-10T00:59:56;57480.22;;;-144.48;91.77
10688;BME280;5392;42.688;23.298;2023-04-10T01:02:23;57478.13;;;-144.48;99.04
10688;BME280;5392;42.688;23.298;2023-04-10T01:04:50;57448.91;;;-144.48;100.00
10688;BME280;5392;42.688;23.298;2023-04-10T01:15:39;57467.69;;;-144.48;100.00
10688;BME280;5392;42.688;23.298;2023-04-10T01:18:30;57428.03;;;-144.48;100.00
10688;BME280;5392;42.688;23.298;2023-04-10T01:21:01;57451.00;;;-144.48;100.00
10688;BME280;5392;42.688;23.298;2023-04-10T01:26:15;57486.47;;;-144.48;100.00
10688;BME280;5392;42.688;23.298;2023-04-10T01:29:00;57515.69;;;-144.48;100.00
10688;BME280;5392;42.688;23.298;2023-04-10T01:31:47;57438.47;;;-144.48;100.00
10688;BME280;5392;42.688;23.298;2023-04-10T01:34:20;57465.59;;;-144.48;100.00
10688;BME280;5392;42.688;23.298;2023-04-10T01:36:50;57411.34;;;-144.48;100.00
10688;BME280;5392;42.688;23.298;2023-04-10T01:39:20;57484.41;;;-144.48;100.00
10688;BME280;5392;42.688;23.298;2023-04-10T01:41:50;57501.09;;;-144.48;100.00
10688;BME280;5392;42.688;23.298;2023-04-10T01:44:20;57463.53;;;-144.48;100.00
10688;BME280;5392;42.688;23.298;2023-04-10T01:46:49;57451.00;;;-144.48;100.00
10688;BME280;5392;42.688;23.298;2023-04-10T01:49:16;57467.69;;;-144.48;100.00
10688;BME280;5392;42.688;23.298;2023-04-10T01:51:44;57442.66;;;-144.48;100.00
10688;BME280;5392;42.688;23.298;2023-04-10T01:54:12;57467.69;;;-144.48;100.00
10688;BME280;5392;42.688;23.298;2023-04-10T02:01:58;57480.22;;;-144.48;100.00
10688;BME280;5392;42.688;23.298;2023-04-10T02:04:26;57480.22;;;-144.48;100.00
10688;BME280;5392;42.688;23.298;2023-04-10T02:07:07;57492.75;;;-144.48;100.00
10688;BME280;5392;42.688;23.298;2023-04-10T02:09:57;57446.81;;;-144.48;100.00
10688;BME280;5392;42.688;23.298;2023-04-10T02:12:29;57428.03;;;-144.48;100.00
10688;BME280;5392;42.688;23.298;2023-04-10T02:14:59;57467.69;;;-144.48;100.00
10688;BME280;5392;42.688;23.298;2023-04-10T02:17:28;57509.44;;;-144.48;100.00
10688;BME280;5392;42.688;23.298;2023-04-10T02:19:56;57451.00;;;-144.48;100.00
10688;BME280;5392;42.688;23.298;2023-04-10T02:22:24;57453.09;;;-144.48;100.00
10688;BME280;5392;42.688;23.298;2023-04-10T02:24:52;57480.22;;;-144.48;100.00
10688;BME280;5392;42.688;23.298;2023-04-10T02:27:29;57469.78;;;-144.48;100.00
10688;BME280;5392;42.688;23.298;2023-04-10T02:29:56;57482.31;;;-144.48;100.00
10688;BME280;5392;42.688;23.298;2023-04-10T02:32:23;57476.03;;;-144.48;100.00
10688;BME280;5392;42.688;23.298;2023-04-10T02:34:50;57419.69;;;-144.48;100.00
10688;BME280;5392;42.688;23.298;2023-04-10T02:37:17;57467.69;;;-144.48;100.00
10688;BME280;5392;42.688;23.298;2023-04-10T02:39:43;57488.56;;;-144.48;100.00
10688;BME280;5392;42.688;23.298;2023-04-10T02:42:10;57465.59;;;-144.48;100.00
10688;BME280;5392;42.688;23.298;2023-04-10T02:44:37;57438.47;;;-144.48;100.00
10688;BME280;5392;42.688;23.298;2023-04-10T02:47:05;57451.00;;;-144.48;100.00
10688;BME280;5392;42.688;23.298;2023-04-10T02:49:33;57473.97;;;-144.48;100.00
10688;BME280;5392;42.688;23.298;2023-04-10T02:52:00;57430.13;;;-144.48;100.00
10688;BME280;5392;42.688;23.298;2023-04-10T02:54:27;57442.66;;;-144.48;100.00
10688;BME280;5392;42.688;23.298;2023-04-10T02:56:55;57461.44;;;-144.48;100.00
10688;BME280;5392;42.688;23.298;2023-04-10T02:59:23;57461.44;;;-144.48;100.00
10688;BME280;5392;42.688;23.298;2023-04-10T03:01:49;57467.69;;;-144.48;100.00
10688;BME280;5392;42.688;23.298;2023-04-10T03:04:17;57455.16;;;-144.48;100.00
10688;BME280;5392;42.688;23.298;2023-04-10T03:06:45;57438.47;;;-144.48;100.00
10688;BME280;5392;42.688;23.298;2023-04-10T03:09:11;57453.09;;;-144.48;100.00
10688;BME280;5392;42.688;23.298;2023-04-10T03:11:38;57453.09;;;-144.48;100.00
10688;BME280;5392;42.688;23.298;2023-04-10T03:14:05;57455.16;;;-144.48;100.00
10688;BME280;5392;42.688;23.298;2023-04-10T03:16:32;57428.03;;;-144.48;100.00
10688;BME280;5392;42.688;23.298;2023-04-10T03:18:59;57484.41;;;-144.48;100.00
10688;BME280;5392;42.688;23.298;2023-04-10T03:21:26;57455.16;;;-144.48;100.00
10688;BME280;5392;42.688;23.298;2023-04-10T03:23:54;57463.53;;;-144.48;100.00
10688;BME280;5392;42.688;23.298;2023-04-10T03:26:21;57459.34;;;-144.48;100.00
10688;BME280;5392;42.688;23.298;2023-04-10T03:28:50;57471.88;;;-144.48;100.00
10688;BME280;5392;42.688;23.298;2023-04-10T03:31:17;57478.13;;;-144.48;100.00
10688;BME280;5392;42.688;23.298;2023-04-10T03:33:43;57438.47;;;-144.48;100.00
10688;BME280;5392;42.688;23.298;2023-04-10T03:36:10;57492.75;;;-144.48;100.00
10688;BME280;5392;42.688;23.298;2023-04-10T03:38:37;57463.53;;;-144.48;100.00
10688;BME280;5392;42.688;23.298;2023-04-10T03:41:04;57423.88;;;-144.48;100.00
10688;BME280;5392;42.688;23.298;2023-04-10T03:43:31;57453.09;;;-144.48;100.00
10688;BME280;5392;42.688;23.298;2023-04-10T03:45:58;57492.75;;;-144.48;100.00
10688;BME280;5392;42.688;23.298;2023-04-10T03:48:24;57457.25;;;-144.48;100.00
10688;BME280;5392;42.688;23.298;2023-04-10T03:50:54;57434.28;;;-144.48;100.00
10688;BME280;5392;42.688;23.298;2023-04-10T03:53:20;57478.13;;;-144.48;100.00
10688;BME280;5392;42.688;23.298;2023-04-10T03:55:47;57471.88;;;-144.48;100.00
10688;BME280;5392;42.688;23.298;2023-04-10T03:58:14;57476.03;;;-144.48;100.00
10688;BME280;5392;42.688;23.298;2023-04-10T04:00:40;57521.97;;;-144.48;100.00
10688;BME280;5392;42.688;23.298;2023-04-10T04:03:07;57467.69;;;-144.48;100.00
10688;BME280;5392;42.688;23.298;2023-04-10T04:05:34;57482.31;;;-144.48;100.00
10688;BME280;5392;42.688;23.298;2023-04-10T04:08:01;57503.19;;;-144.48;100.00
10688;BME280;5392;42.688;23.298;2023-04-10T04:10:30;57471.88;;;-144.48;100.00
10688;BME280;5392;42.688;23.298;2023-04-10T04:12:56;57492.75;;;-144.48;100.00
10688;BME280;5392;42.688;23.298;2023-04-10T04:15:23;57438.47;;;-144.48;100.00
10688;BME280;5392;42.688;23.298;2023-04-10T04:17:50;57484.41;;;-144.48;100.00
10688;BME280;5392;42.688;23.298;2023-04-10T04:20:17;57461.44;;;-144.48;100.00
10688;BME280;5392;42.688;23.298;2023-04-10T04:22:43;57476.03;;;-144.48;100.00
10688;BME280;5392;42.688;23.298;2023-04-10T04:25:11;57469.78;;;-144.48;100.00
10688;BME280;5392;42.688;23.298;2023-04-10T04:27:38;57496.91;;;-144.48;100.00
10688;BME280;5392;42.688;23.298;2023-04-10T04:30:05;57482.31;;;-144.48;100.00
10688;BME280;5392;42.688;23.298;2023-04-10T04:32:32;57476.03;;;-144.48;100.00
10688;BME280;5392;42.688;23.298;2023-04-10T04:34:59;57467.69;;;-144.48;100.00
10688;BME280;5392;42.688;23.298;2023-04-10T04:37:26;57451.00;;;-144.48;100.00
10688;BME280;5392;42.688;23.298;2023-04-10T04:39:52;57501.09;;;-144.48;100.00
10688;BME280;5392;42.688;23.298;2023-04-10T04:42:19;57455.16;;;-144.48;100.00
10688;BME280;5392;42.688;23.298;2023-04-10T04:44:45;57480.22;;;-144.48;100.00
10688;BME280;5392;42.688;23.298;2023-04-10T04:47:12;57453.09;;;-144.48;100.00
10688;BME280;5392;42.688;23.298;2023-04-10T04:49:39;57467.69;;;-144.48;100.00
10688;BME280;5392;42.688;23.298;2023-04-10T04:52:05;57459.34;;;-144.48;100.00
10688;BME280;5392;42.688;23.298;2023-04-10T04:54:34;57451.00;;;-144.48;100.00
10688;BME280;5392;42.688;23.298;2023-04-10T04:57:01;57463.53;;;-144.48;100.00
10688;BME280;5392;42.688;23.298;2023-04-10T04:59:27;57417.59;;;-144.48;98.59
10688;BME280;5392;42.688;23.298;2023-04-10T05:01:54;57463.53;;;-144.48;96.97
10688;BME280;5392;42.688;23.298;2023-04-10T05:04:21;57480.22;;;-144.48;95.39
10688;BME280;5392;42.688;23.298;2023-04-10T05:06:48;57455.16;;;-144.48;93.27
10688;BME280;5392;42.688;23.298;2023-04-10T05:09:15;57442.66;;;-144.48;91.16
10688;BME280;5392;42.688;23.298;2023-04-10T05:11:41;57486.47;;;-144.48;93.65
10688;BME280;5392;42.688;23.298;2023-04-10T05:14:08;57440.56;;;-144.48;92.97
10688;BME280;5392;42.688;23.298;2023-04-10T05:16:35;57453.09;;;-144.48;91.63
10688;BME280;5392;42.688;23.298;2023-04-10T05:19:01;57440.56;;;-144.48;89.98
10688;BME280;5392;42.688;23.298;2023-04-10T05:21:28;57451.00;;;-144.48;89.00
10688;BME280;5392;42.688;23.298;2023-04-10T05:23:55;57453.09;;;-144.48;86.96
10688;BME280;5392;42.688;23.298;2023-04-10T05:26:21;57432.22;;;-144.48;85.08
10688;BME280;5392;42.688;23.298;2023-04-10T05:28:48;57484.41;;;-144.48;85.63
10688;BME280;5392;42.688;23.298;2023-04-10T05:31:15;57486.47;;;-144.48;82.59
10688;BME280;5392;42.688;23.298;2023-04-10T05:33:42;57451.00;;;-144.48;82.25
10688;BME280;5392;42.688;23.298;2023-04-10T05:36:09;57476.03;;;-144.48;78.97
10688;BME280;5392;42.688;23.298;2023-04-10T05:38:36;57440.56;;;-144.48;75.76
10688;BME280;5392;42.688;23.298;2023-04-10T05:41:03;57451.00;;;-144.48;74.60
10688;BME280;5392;42.688;23.298;2023-04-10T05:43:29;57438.47;;;-144.48;72.10
10688;BME280;5392;42.688;23.298;2023-04-10T05:45:56;57463.53;;;-144.48;69.43
10688;BME280;5392;42.688;23.298;2023-04-10T05:48:22;57438.47;;;-144.48;68.36
10688;BME280;5392;42.688;23.298;2023-04-10T05:50:51;57407.16;;;-144.48;65.49
10688;BME280;5392;42.688;23.298;2023-04-10T05:53:19;57444.72;;;-144.48;64.83
10688;BME280;5392;42.688;23.298;2023-04-10T05:55:49;57438.47;;;-144.48;62.66
10688;BME280;5392;42.688;23.298;2023-04-10T05:58:21;57455.16;;;-144.48;61.16
10688;BME280;5392;42.688;23.298;2023-04-10T06:00:48;57405.06;;;-144.48;61.56
10688;BME280;5392;42.688;23.298;2023-04-10T06:03:14;57448.91;;;-144.48;63.12
10688;BME280;5392;42.688;23.298;2023-04-10T06:05:41;57423.88;;;-144.48;63.86
10688;BME280;5392;42.688;23.298;2023-04-10T06:08:08;57478.13;;;-144.48;67.01
10688;BME280;5392;42.688;23.298;2023-04-10T06:10:34;57425.94;;;-144.48;68.36
10688;BME280;5392;42.688;23.298;2023-04-10T06:13:01;57461.44;;;-144.48;69.92
10688;BME280;5392;42.688;23.298;2023-04-10T06:15:28;57471.88;;;-144.48;69.24
10688;BME280;5392;42.688;23.298;2023-04-10T06:17:55;57451.00;;;-144.48;69.50
10688;BME280;5392;42.688;23.298;2023-04-10T06:20:21;57451.00;;;-144.48;72.10
10688;BME280;5392;42.688;23.298;2023-04-10T06:22:48;57476.03;;;-144.48;74.13
10688;BME280;5392;42.688;23.298;2023-04-10T06:25:15;57467.69;;;-144.48;74.20
10688;BME280;5392;42.688;23.298;2023-04-10T06:27:41;57486.47;;;-144.48;73.04
10688;BME280;5392;42.688;23.298;2023-04-10T06:30:08;57442.66;;;-144.48;76.43
10688;BME280;5392;42.688;23.298;2023-04-10T06:32:35;57442.66;;;-144.48;72.33
10688;BME280;5392;42.688;23.298;2023-04-10T06:35:02;57494.81;;;-144.48;72.30
10688;BME280;5392;42.688;23.298;2023-04-10T06:37:29;57451.00;;;-144.48;74.53
10688;BME280;5392;42.688;23.298;2023-04-10T06:40:08;57469.78;;;-144.48;75.35
10688;BME280;5392;42.688;23.298;2023-04-10T06:42:36;57446.81;;;-144.48;77.30
10688;BME280;5392;42.688;23.298;2023-04-10T06:45:03;57448.91;;;-144.48;76.62
10688;BME280;5392;42.688;23.298;2023-04-10T06:47:30;57451.00;;;-144.48;77.33
10688;BME280;5392;42.688;23.298;2023-04-10T06:49:57;57438.47;;;-144.48;76.91
10688;BME280;5392;42.688;23.298;2023-04-10T06:52:24;57442.66;;;-144.48;79.92
10688;BME280;5392;42.688;23.298;2023-04-10T06:54:51;57476.03;;;-144.48;83.42
10688;BME280;5392;42.688;23.298;2023-04-10T06:57:18;57461.44;;;-144.48;82.80
10688;BME280;5392;42.688;23.298;2023-04-10T06:59:45;57461.44;;;-144.48;83.81
10688;BME280;5392;42.688;23.298;2023-04-10T07:02:12;57451.00;;;-144.48;82.99
10688;BME280;5392;42.688;23.298;2023-04-10T07:04:38;57476.03;;;-144.48;82.54
10688;BME280;5392;42.688;23.298;2023-04-10T07:07:05;57455.16;;;-144.48;81.07
10688;BME280;5392;42.688;23.298;2023-04-10T07:09:35;57417.59;;;-144.48;82.94
10688;BME280;5392;42.688;23.298;2023-04-10T07:12:02;57442.66;;;-144.48;83.24
10688;BME280;5392;42.688;23.298;2023-04-10T07:14:29;57446.81;;;-144.48;82.64
10688;BME280;5392;42.688;23.298;2023-04-10T07:16:56;57465.59;;;-144.48;80.66
10688;BME280;5392;42.688;23.298;2023-04-10T07:19:23;57469.78;;;-144.48;79.38
10688;BME280;5392;42.688;23.298;2023-04-10T07:21:49;57432.22;;;-144.48;81.53
10688;BME280;5392;42.688;23.298;2023-04-10T07:24:16;57476.03;;;-144.48;83.40
10688;BME280;5392;42.688;23.298;2023-04-10T07:26:44;57471.88;;;-144.48;83.69
10688;BME280;5392;42.688;23.298;2023-04-10T07:29:12;57430.13;;;-144.48;81.38
10688;BME280;5392;42.688;23.298;2023-04-10T07:31:39;57444.72;;;-144.48;80.40
10688;BME280;5392;42.688;23.298;2023-04-10T07:34:06;57438.47;;;-144.48;82.40
10688;BME280;5392;42.688;23.298;2023-04-10T07:36:33;57459.34;;;-144.48;81.03
10688;BME280;5392;42.688;23.298;2023-04-10T07:38:59;57444.72;;;-144.48;79.04
10688;BME280;5392;42.688;23.298;2023-04-10T07:41:26;57442.66;;;-144.48;79.05
10688;BME280;5392;42.688;23.298;2023-04-10T07:43:53;57436.38;;;-144.48;78.91
10688;BME280;5392;42.688;23.298;2023-04-10T07:46:19;57465.59;;;-144.48;75.76
10688;BME280;5392;42.688;23.298;2023-04-10T07:48:46;57463.53;;;-144.48;72.92
10688;BME280;5392;42.688;23.298;2023-04-10T07:51:13;57488.56;;;-144.48;72.19
10688;BME280;5392;42.688;23.298;2023-04-10T07:53:39;57480.22;;;-144.48;73.10
10688;BME280;5392;42.688;23.298;2023-04-10T07:56:07;57471.88;;;-144.48;73.57
10688;BME280;5392;42.688;23.298;2023-04-10T07:58:33;57486.47;;;-144.48;72.38
10688;BME280;5392;42.688;23.298;2023-04-10T08:01:01;57494.81;;;-144.48;71.78
10688;BME280;5392;42.688;23.298;2023-04-10T08:03:27;57430.13;;;-144.48;70.98
10688;BME280;5392;42.688;23.298;2023-04-10T08:05:54;57380.03;;;-144.48;71.67
10688;BME280;5392;42.688;23.298;2023-04-10T08:08:21;57469.78;;;-144.48;71.76
10688;BME280;5392;42.688;23.298;2023-04-10T08:10:48;57453.09;;;-144.48;73.28
10688;BME280;5392;42.688;23.298;2023-04-10T08:13:15;57415.50;;;-144.48;72.81
10688;BME280;5392;42.688;23.298;2023-04-10T08:15:42;57476.03;;;-144.48;73.41
10688;BME280;5392;42.688;23.298;2023-04-10T08:18:08;57463.53;;;-144.48;73.09
10688;BME280;5392;42.688;23.298;2023-04-10T08:20:35;57451.00;;;-144.48;72.74
10688;BME280;5392;42.688;23.298;2023-04-10T08:23:02;57461.44;;;-144.48;72.27
10688;BME280;5392;42.688;23.298;2023-04-10T08:25:45;57398.81;;;-144.48;74.15
10688;BME280;5392;42.688;23.298;2023-04-10T08:28:12;57453.09;;;-144.48;71.47
10688;BME280;5392;42.688;23.298;2023-04-10T08:30:39;57459.34;;;-144.48;70.91
10688;BME280;5392;42.688;23.298;2023-04-10T08:33:05;57467.69;;;-144.48;71.78
10688;BME280;5392;42.688;23.298;2023-04-10T08:35:32;57467.69;;;-144.48;73.61
10688;BME280;5392;42.688;23.298;2023-04-10T08:37:59;57465.59;;;-144.48;74.68
10688;BME280;5392;42.688;23.298;2023-04-10T08:40:39;57423.88;;;-144.48;73.74
10688;BME280;5392;42.688;23.298;2023-04-10T08:43:05;57465.59;;;-144.48;72.54
10688;BME280;5392;42.688;23.298;2023-04-10T08:45:32;57453.09;;;-144.48;74.19
10688;BME280;5392;42.688;23.298;2023-04-10T08:48:03;57480.22;;;-144.48;73.47
10688;BME280;5392;42.688;23.298;2023-04-10T08:50:32;57484.41;;;-144.48;73.61
10688;BME280;5392;42.688;23.298;2023-04-10T08:53:07;57463.53;;;-144.48;73.30
10688;BME280;5392;42.688;23.298;2023-04-10T08:55:38;57484.41;;;-144.48;71.64
10688;BME280;5392;42.688;23.298;2023-04-10T08:58:05;57471.88;;;-144.48;71.72
10688;BME280;5392;42.688;23.298;2023-04-10T09:00:34;57486.47;;;-144.48;71.32
10688;BME280;5392;42.688;23.298;2023-04-10T09:03:01;57499.00;;;-144.48;72.01
10688;BME280;5392;42.688;23.298;2023-04-10T09:05:30;57419.69;;;-144.48;71.61
10688;BME280;5392;42.688;23.298;2023-04-10T09:07:57;57446.81;;;-144.48;71.28
10688;BME280;5392;42.688;23.298;2023-04-10T09:10:24;57461.44;;;-144.48;71.98
10688;BME280;5392;42.688;23.298;2023-04-10T09:12:51;57451.00;;;-144.48;69.40
10688;BME280;5392;42.688;23.298;2023-04-10T09:15:17;57490.66;;;-144.48;70.50
10688;BME280;5392;42.688;23.298;2023-04-10T09:17:54;57471.88;;;-144.48;71.53
10688;BME280;5392;42.688;23.298;2023-04-10T09:20:23;57486.47;;;-144.48;69.52
10688;BME280;5392;42.688;23.298;2023-04-10T09:22:51;57428.03;;;-144.48;70.21
10688;BME280;5392;42.688;23.298;2023-04-10T09:28:05;57442.66;;;-144.48;68.87
10688;BME280;5392;42.688;23.298;2023-04-10T09:30:37;57417.59;;;-144.48;67.70
10688;BME280;5392;42.688;23.298;2023-04-10T09:33:24;57455.16;;;-144.48;68.88
10688;BME280;5392;42.688;23.298;2023-04-10T09:35:53;57457.25;;;-144.48;69.57
10688;BME280;5392;42.688;23.298;2023-04-10T09:38:22;57467.69;;;-144.48;69.69
10688;BME280;5392;42.688;23.298;2023-04-10T09:40:49;57438.47;;;-144.48;70.22
10688;BME280;5392;42.688;23.298;2023-04-10T09:43:22;57459.34;;;-144.48;69.66
10688;BME280;5392;42.688;23.298;2023-04-10T09:45:54;57444.72;;;-144.48;69.98
10688;BME280;5392;42.688;23.298;2023-04-10T09:48:23;57467.69;;;-144.48;68.70
10688;BME280;5392;42.688;23.298;2023-04-10T09:50:50;57440.56;;;-144.48;68.98
10688;BME280;5392;42.688;23.298;2023-04-10T09:53:18;57442.66;;;-144.48;68.39
10688;BME280;5392;42.688;23.298;2023-04-10T09:55:47;57480.22;;;-144.48;67.43
10688;BME280;5392;42.688;23.298;2023-04-10T09:58:15;57455.16;;;-144.48;66.61
10688;BME280;5392;42.688;23.298;2023-04-10T10:00:44;57409.25;;;-144.48;66.40
10688;BME280;5392;42.688;23.298;2023-04-10T10:03:16;57405.06;;;-144.48;66.12
10688;BME280;5392;42.688;23.298;2023-04-10T10:05:48;57444.72;;;-144.48;64.46
10688;BME280;5392;42.688;23.298;2023-04-10T10:08:15;57478.13;;;-144.48;64.77
10688;BME280;5392;42.688;23.298;2023-04-10T10:11:02;57467.69;;;-144.48;64.73
10688;BME280;5392;42.688;23.298;2023-04-10T10:13:49;57451.00;;;-144.48;65.25
10688;BME280;5392;42.688;23.298;2023-04-10T10:16:27;57446.81;;;-144.48;64.43
10688;BME280;5392;42.688;23.298;2023-04-10T10:21:43;57417.59;;;-144.48;64.14
10688;BME280;5392;42.688;23.298;2023-04-10T10:24:12;57463.53;;;-144.48;64.23
10688;BME280;5392;42.688;23.298;2023-04-10T10:26:39;57469.78;;;-144.48;64.76
10688;BME280;5392;42.688;23.298;2023-04-10T10:29:07;57469.78;;;-144.48;66.00
10688;BME280;5392;42.688;23.298;2023-04-10T10:31:38;57446.81;;;-144.48;65.46
10688;BME280;5392;42.688;23.298;2023-04-10T10:34:06;57432.22;;;-144.48;65.98
10688;BME280;5392;42.688;23.298;2023-04-10T10:36:35;57469.78;;;-144.48;65.83
10688;BME280;5392;42.688;23.298;2023-04-10T10:44:57;57425.94;;;-144.48;66.03
10688;BME280;5392;42.688;23.298;2023-04-10T10:47:29;57400.91;;;-144.48;64.93
10688;BME280;5392;42.688;23.298;2023-04-10T10:49:57;57438.47;;;-144.48;65.32
10688;BME280;5392;42.688;23.298;2023-04-10T10:52:56;57448.91;;;-144.48;65.34
10688;BME280;5392;42.688;23.298;2023-04-10T10:58:06;57425.94;;;-144.48;66.21
10688;BME280;5392;42.688;23.298;2023-04-10T11:05:57;57440.56;;;-144.48;63.75
10688;BME280;5392;42.688;23.298;2023-04-10T11:13:25;57465.59;;;-144.48;63.10
10688;BME280;5392;42.688;23.298;2023-04-10T11:15:51;57440.56;;;-144.48;62.99
10688;BME280;5392;42.688;23.298;2023-04-10T11:21:28;57432.22;;;-144.48;63.39
10688;BME280;5392;42.688;23.298;2023-04-10T11:31:43;57480.22;;;-144.48;66.74
10688;BME280;5392;42.688;23.298;2023-04-10T11:34:11;57455.16;;;-144.48;67.10
10688;BME280;5392;42.688;23.298;2023-04-10T11:36:42;57503.19;;;-144.48;67.41
10688;BME280;5392;42.688;23.298;2023-04-10T11:39:11;57496.91;;;-144.48;67.36
10688;BME280;5392;42.688;23.298;2023-04-10T11:41:49;57421.78;;;-144.48;67.65
10688;BME280;5392;42.688;23.298;2023-04-10T11:44:30;57509.44;;;-144.48;67.60
10688;BME280;5392;42.688;23.298;2023-04-10T11:46:57;57469.78;;;-144.48;67.12
10688;BME280;5392;42.688;23.298;2023-04-10T11:49:26;57465.59;;;-144.48;66.39
10688;BME280;5392;42.688;23.298;2023-04-10T11:51:54;57432.22;;;-144.48;65.34
10688;BME280;5392;42.688;23.298;2023-04-10T11:54:22;57471.88;;;-144.48;66.27
10688;BME280;5392;42.688;23.298;2023-04-10T11:57:04;57415.50;;;-144.48;66.03
10688;BME280;5392;42.688;23.298;2023-04-10T11:59:32;57451.00;;;-144.48;66.58
10688;BME280;5392;42.688;23.298;2023-04-10T12:02:17;57444.72;;;-144.48;67.19
10688;BME280;5392;42.688;23.298;2023-04-10T12:04:44;57451.00;;;-144.48;68.09
10688;BME280;5392;42.688;23.298;2023-04-10T12:07:11;57453.09;;;-144.48;69.36
10688;BME280;5392;42.688;23.298;2023-04-10T12:09:38;57417.59;;;-144.48;69.06
10688;BME280;5392;42.688;23.298;2023-04-10T12:12:06;57432.22;;;-144.48;69.34
10688;BME280;5392;42.688;23.298;2023-04-10T12:17:01;57471.88;;;-144.48;70.86
10688;BME280;5392;42.688;23.298;2023-04-10T12:19:29;57442.66;;;-144.48;72.92
10688;BME280;5392;42.688;23.298;2023-04-10T12:21:57;57459.34;;;-144.48;75.76
10688;BME280;5392;42.688;23.298;2023-04-10T12:27:07;57438.47;;;-144.48;100.00
10688;BME280;5392;42.688;23.298;2023-04-10T12:29:33;57455.16;;;-144.48;100.00
10688;BME280;5392;42.688;23.298;2023-04-10T12:32:07;57486.47;;;-144.48;100.00
10688;BME280;5392;42.688;23.298;2023-04-10T12:34:38;57455.16;;;-144.48;100.00
10688;BME280;5392;42.688;23.298;2023-04-10T12:37:06;57494.81;;;-144.48;100.00
10688;BME280;5392;42.688;23.298;2023-04-10T12:39:33;57457.25;;;-144.48;100.00
10688;BME280;5392;42.688;23.298;2023-04-10T12:42:13;57480.22;;;-144.48;100.00
10688;BME280;5392;42.688;23.298;2023-04-10T12:44:56;57473.97;;;-144.48;100.00
10688;BME280;5392;42.688;23.298;2023-04-10T12:47:27;57478.13;;;-144.48;100.00
10688;BME280;5392;42.688;23.298;2023-04-10T12:50:05;57469.78;;;-144.48;100.00
10688;BME280;5392;42.688;23.298;2023-04-10T12:52:32;57476.03;;;-144.48;100.00
10688;BME280;5392;42.688;23.298;2023-04-10T12:55:16;57480.22;;;-144.48;100.00
10688;BME280;5392;42.688;23.298;2023-04-10T12:57:45;57486.47;;;-144.48;100.00
10688;BME280;5392;42.688;23.298;2023-04-10T13:00:18;57457.25;;;-144.48;100.00
10688;BME280;5392;42.688;23.298;2023-04-10T13:02:47;57442.66;;;-144.48;100.00
10688;BME280;5392;42.688;23.298;2023-04-10T13:05:14;57490.66;;;-144.48;100.00
10688;BME280;5392;42.688;23.298;2023-04-10T13:07:41;57484.41;;;-144.48;100.00
10688;BME280;5392;42.688;23.298;2023-04-10T13:10:08;57476.03;;;-144.48;100.00
10688;BME280;5392;42.688;23.298;2023-04-10T13:12:35;57465.59;;;-144.48;100.00
10688;BME280;5392;42.688;23.298;2023-04-10T13:15:04;57444.72;;;-144.48;100.00
10688;BME280;5392;42.688;23.298;2023-04-10T13:17:33;57505.25;;;-144.48;100.00
10688;BME280;5392;42.688;23.298;2023-04-10T13:20:00;57501.09;;;-144.48;100.00
10688;BME280;5392;42.688;23.298;2023-04-10T13:22:27;57486.47;;;-144.48;100.00
10688;BME280;5392;42.688;23.298;2023-04-10T13:24:54;57471.88;;;-144.48;100.00
10688;BME280;5392;42.688;23.298;2023-04-10T13:27:20;57459.34;;;-144.48;100.00
10688;BME280;5392;42.688;23.298;2023-04-10T13:29:47;57473.97;;;-144.48;100.00
10688;BME280;5392;42.688;23.298;2023-04-10T13:32:14;57463.53;;;-144.48;100.00
10688;BME280;5392;42.688;23.298;2023-04-10T13:34:41;57448.91;;;-144.48;100.00
10688;BME280;5392;42.688;23.298;2023-04-10T13:37:08;57425.94;;;-144.48;100.00
10688;BME280;5392;42.688;23.298;2023-04-10T13:39:36;57469.78;;;-144.48;100.00